Time;durP1;ratioP1;P1;durP2;ratioP2;P2;SDS_P1;SDS_P2;PMS_P1;PMS_P2;Temp;Humidity;BMP_temperature;BMP_pressure;BME280_temperature;BME280_humidity;BME280_pressure;Samples;Min_cycle;Max_cycle;Signal;HPM_P1;HPM_P2
2021/08/07 00:00:21;;;;;;;19.35;17.00;;;21.00;99.90;;;;;;5074137;28;20032;-75
2021/08/07 00:02:47;;;;;;;21.40;16.25;;;21.10;99.90;;;;;;5073908;28;20025;-75
2021/08/07 00:05:12;;;;;;;24.40;16.70;;;21.00;99.90;;;;;;5074221;28;20032;-74
2021/08/07 00:07:38;;;;;;;20.05;15.23;;;21.00;99.90;;;;;;5073971;28;20017;-74
2021/08/07 00:10:07;;;;;;;22.52;15.25;;;21.00;99.90;;;;;;5074218;28;20021;-74
2021/08/07 00:12:34;;;;;;;17.45;15.50;;;21.00;99.90;;;;;;5074061;28;20066;-75
2021/08/07 00:14:59;;;;;;;17.77;14.88;;;21.00;99.90;;;;;;5073968;28;20035;-74
2021/08/07 00:17:25;;;;;;;22.48;15.52;;;21.00;99.90;;;;;;5073884;28;20354;-75
2021/08/07 00:19:51;;;;;;;18.00;14.80;;;20.90;99.90;;;;;;5073928;28;20025;-74
2021/08/07 00:22:16;;;;;;;18.10;14.73;;;21.00;99.90;;;;;;5073964;28;20474;-74
2021/08/07 00:24:42;;;;;;;17.25;15.02;;;20.90;99.90;;;;;;5073948;28;20028;-74
2021/08/07 00:27:08;;;;;;;16.38;13.75;;;20.90;99.90;;;;;;5073341;28;20052;-74
2021/08/07 00:29:37;;;;;;;16.65;13.25;;;20.80;99.90;;;;;;5074133;28;20024;-74
2021/08/07 00:32:03;;;;;;;19.77;14.48;;;20.80;99.90;;;;;;5073620;28;20028;-74
2021/08/07 00:34:29;;;;;;;16.65;13.07;;;20.80;99.90;;;;;;5073540;28;20035;-74
2021/08/07 00:36:55;;;;;;;20.20;13.63;;;20.80;99.90;;;;;;5074011;28;20032;-74
2021/08/07 00:39:20;;;;;;;15.98;12.93;;;20.70;99.90;;;;;;5073753;28;20391;-74
2021/08/07 00:41:46;;;;;;;17.67;13.85;;;20.70;99.90;;;;;;5073338;28;20095;-74
2021/08/07 00:44:12;;;;;;;18.90;13.65;;;20.70;99.90;;;;;;5073417;28;20493;-74
2021/08/07 00:46:37;;;;;;;16.58;13.13;;;20.70;99.90;;;;;;5073691;28;20045;-74
2021/08/07 00:49:04;;;;;;;19.70;14.10;;;20.70;99.90;;;;;;5074246;28;20383;-75
2021/08/07 00:51:31;;;;;;;15.82;13.85;;;20.70;99.90;;;;;;5073488;28;20048;-75
2021/08/07 00:53:59;;;;;;;16.70;14.77;;;20.60;99.90;;;;;;5073697;28;20024;-75
2021/08/07 00:56:24;;;;;;;16.25;13.98;;;20.70;99.90;;;;;;5073164;28;20046;-74
2021/08/07 00:58:50;;;;;;;16.98;13.68;;;20.70;99.90;;;;;;5073519;28;20626;-75
2021/08/07 01:01:16;;;;;;;14.90;13.20;;;20.60;99.90;;;;;;5073671;28;20078;-75
2021/08/07 01:03:45;;;;;;;17.25;14.27;;;20.60;99.90;;;;;;5073710;28;20048;-74
2021/08/07 01:06:26;;;;;;;15.85;13.18;;;20.60;99.90;;;;;;5073425;28;20474;-75
2021/08/07 01:09:20;;;;;;;18.35;13.52;;;20.50;99.90;;;;;;5073530;28;20074;-75
2021/08/07 01:11:54;;;;;;;16.70;12.38;;;20.50;99.90;;;;;;5073437;28;20116;-74
2021/08/07 01:14:31;;;;;;;14.82;13.15;;;20.50;99.90;;;;;;5073366;28;20017;-74
2021/08/07 01:16:57;;;;;;;14.43;12.43;;;20.50;99.90;;;;;;5073341;28;20036;-75
2021/08/07 01:19:28;;;;;;;17.60;13.23;;;20.50;99.90;;;;;;5072359;28;20364;-75
2021/08/07 01:21:59;;;;;;;16.02;12.73;;;20.50;99.90;;;;;;5072970;28;20070;-74
2021/08/07 01:24:44;;;;;;;16.77;13.50;;;20.50;99.90;;;;;;5073076;28;20055;-74
2021/08/07 01:27:26;;;;;;;15.60;13.20;;;20.50;99.90;;;;;;5073346;28;20107;-74
2021/08/07 01:29:54;;;;;;;18.25;13.30;;;20.50;99.90;;;;;;5073045;28;20470;-75
2021/08/07 01:32:24;;;;;;;13.73;12.20;;;20.60;99.90;;;;;;5073332;28;20047;-74
2021/08/07 01:34:52;;;;;;;16.73;12.48;;;20.60;99.90;;;;;;5073506;28;20020;-74
2021/08/07 01:37:19;;;;;;;15.60;12.45;;;20.70;99.90;;;;;;5073210;28;20515;-74
2021/08/07 01:39:47;;;;;;;16.88;13.35;;;20.70;99.90;;;;;;5073264;28;20363;-74
2021/08/07 01:42:13;;;;;;;17.05;13.20;;;20.70;99.90;;;;;;5073148;28;20035;-74
2021/08/07 01:44:39;;;;;;;15.93;13.02;;;20.70;99.90;;;;;;5072559;28;20033;-75
2021/08/07 01:47:28;;;;;;;17.83;12.80;;;20.70;99.90;;;;;;5073217;28;20035;-75
2021/08/07 01:50:05;;;;;;;15.98;13.00;;;20.70;99.90;;;;;;5072902;28;20043;-75
2021/08/07 01:52:35;;;;;;;18.67;13.00;;;20.70;99.90;;;;;;5053453;28;20029;-75
2021/08/07 01:55:04;;;;;;;16.55;13.20;;;20.60;99.90;;;;;;5056791;28;20148;-75
2021/08/07 01:57:33;;;;;;;15.37;13.40;;;20.60;99.90;;;;;;5056617;28;20115;-75
2021/08/07 02:00:01;;;;;;;18.27;13.30;;;20.60;99.90;;;;;;5067295;28;20261;-75
2021/08/07 02:02:28;;;;;;;13.60;12.20;;;20.50;99.90;;;;;;5076565;28;20111;-75
2021/08/07 02:04:53;;;;;;;14.43;12.43;;;20.50;99.90;;;;;;5076133;28;20033;-75
2021/08/07 02:07:19;;;;;;;17.83;12.77;;;20.50;99.90;;;;;;5075235;28;20028;-75
2021/08/07 02:09:46;;;;;;;13.93;12.40;;;20.50;99.90;;;;;;5075892;28;20028;-75
2021/08/07 02:12:14;;;;;;;17.25;13.52;;;20.40;99.90;;;;;;5076531;28;20103;-75
2021/08/07 02:14:40;;;;;;;15.95;13.27;;;20.40;99.90;;;;;;5076411;28;20063;-75
2021/08/07 02:17:06;;;;;;;14.10;12.00;;;20.40;99.90;;;;;;5075168;28;20040;-75
2021/08/07 02:19:32;;;;;;;15.88;12.50;;;20.40;99.90;;;;;;5076203;28;20451;-75
2021/08/07 02:21:59;;;;;;;15.38;13.02;;;20.50;99.90;;;;;;5075989;28;20024;-75
2021/08/07 02:24:25;;;;;;;22.35;13.80;;;20.40;99.90;;;;;;5076395;28;20033;-75
2021/08/07 02:26:53;;;;;;;20.63;13.10;;;20.40;99.90;;;;;;5076420;28;20032;-75
2021/08/07 02:29:18;;;;;;;14.00;12.13;;;20.40;99.90;;;;;;5074796;28;20414;-75
2021/08/07 16:40:52;;;;;;;5.00;2.97;;;22.40;95.90;;;;;;5111406;27;20434;-77
2021/08/07 16:43:19;;;;;;;3.40;3.10;;;22.40;96.90;;;;;;5110903;28;20459;-74
2021/08/07 16:45:45;;;;;;;4.03;3.15;;;22.40;97.20;;;;;;5111256;28;20055;-74
2021/08/07 16:48:11;;;;;;;3.72;3.33;;;22.40;96.90;;;;;;5110638;28;20028;-74
2021/08/07 16:50:39;;;;;;;3.28;2.95;;;22.40;97.00;;;;;;5110823;28;20028;-75
2021/08/07 16:53:05;;;;;;;5.80;3.00;;;22.50;96.80;;;;;;5110877;28;20034;-74
2021/08/07 16:55:31;;;;;;;2.72;2.40;;;22.50;96.30;;;;;;5110827;28;20027;-75
2021/08/07 16:57:56;;;;;;;3.92;2.85;;;22.60;96.50;;;;;;5110902;28;20465;-74
2021/08/07 17:00:22;;;;;;;3.22;2.70;;;22.60;96.30;;;;;;5110940;28;20024;-74
2021/08/07 17:02:47;;;;;;;3.50;2.97;;;22.60;96.10;;;;;;5110894;28;20027;-75
2021/08/07 17:05:13;;;;;;;3.08;2.78;;;22.70;95.90;;;;;;5110679;28;20039;-75
2021/08/07 17:07:39;;;;;;;3.15;2.40;;;22.60;96.00;;;;;;5110704;28;20050;-75
2021/08/07 17:10:05;;;;;;;2.83;2.47;;;22.70;95.80;;;;;;5110470;28;20351;-74
2021/08/07 17:12:31;;;;;;;4.40;2.90;;;22.60;95.70;;;;;;5110565;28;20474;-75
2021/08/07 17:14:57;;;;;;;4.63;2.65;;;22.70;95.20;;;;;;5110555;28;20028;-74
2021/08/07 17:17:26;;;;;;;3.50;2.63;;;22.70;95.00;;;;;;5110433;28;20078;-75
2021/08/07 17:19:52;;;;;;;3.95;2.63;;;22.70;94.50;;;;;;5109929;28;20038;-75
2021/08/07 17:22:17;;;;;;;2.95;2.65;;;22.70;94.50;;;;;;5110604;28;20103;-76
2021/08/07 17:24:43;;;;;;;2.85;2.60;;;22.70;94.60;;;;;;5110388;28;20530;-74
2021/08/07 17:27:10;;;;;;;3.45;3.10;;;22.70;94.50;;;;;;5110256;28;20024;-74
2021/08/07 17:29:35;;;;;;;3.20;2.90;;;22.60;94.40;;;;;;5110036;28;20093;-74
2021/08/07 17:32:01;;;;;;;3.50;3.17;;;22.60;94.80;;;;;;5109977;28;20455;-74
2021/08/07 17:34:29;;;;;;;3.42;3.13;;;22.50;94.70;;;;;;5110076;28;20391;-74
2021/08/07 17:36:55;;;;;;;3.88;2.90;;;22.50;95.10;;;;;;5109967;28;20031;-74
2021/08/07 17:39:20;;;;;;;3.90;3.25;;;22.50;95.20;;;;;;5109382;28;20058;-74
2021/08/07 17:41:46;;;;;;;6.95;3.28;;;22.40;94.70;;;;;;5109696;28;20027;-74
2021/08/07 17:44:12;;;;;;;3.55;3.20;;;22.50;94.80;;;;;;5110058;28;20446;-74
2021/08/07 17:46:38;;;;;;;6.15;2.88;;;22.40;94.90;;;;;;5109778;28;20019;-74
2021/08/07 17:49:03;;;;;;;2.95;2.65;;;22.40;95.10;;;;;;5108611;28;20059;-74
2021/08/07 17:51:29;;;;;;;4.22;2.90;;;22.30;94.80;;;;;;5100165;28;20103;-74
2021/08/07 17:53:55;;;;;;;3.40;3.03;;;22.40;94.60;;;;;;5095966;28;20036;-74
2021/08/07 17:56:20;;;;;;;4.43;2.85;;;22.30;94.60;;;;;;5096124;28;20028;-74
2021/08/07 17:58:50;;;;;;;3.65;2.75;;;22.30;94.40;;;;;;5096366;28;20028;-74
2021/08/07 18:01:19;;;;;;;;;;;22.30;93.80;;;;;;5096427;28;20059;-75
2021/08/07 18:03:46;;;;;;;2.33;2.13;;;22.30;93.50;;;;;;5095695;28;20077;-74
2021/08/07 18:06:13;;;;;;;3.75;2.10;;;22.20;93.60;;;;;;5096008;28;20019;-74
2021/08/07 18:08:39;;;;;;;4.15;2.60;;;22.20;93.70;;;;;;5095369;28;20177;-77
2021/08/07 18:11:07;;;;;;;3.95;2.28;;;22.10;93.50;;;;;;5095888;28;20470;-77
2021/08/07 18:15:57;;;;;;;2.65;1.98;;;22.00;93.40;;;;;;5090327;28;20420;-72
2021/08/07 18:18:23;;;;;;;2.65;2.20;;;22.00;93.50;;;;;;5088636;28;20024;-72
2021/08/07 18:20:48;;;;;;;2.45;2.22;;;22.10;93.20;;;;;;5089304;28;20021;-72
2021/08/07 18:23:14;;;;;;;2.78;1.90;;;22.10;93.00;;;;;;5090636;28;20089;-72
2021/08/07 18:25:40;;;;;;;2.00;1.90;;;22.00;93.20;;;;;;5090699;28;20032;-73
2021/08/07 18:28:06;;;;;;;2.20;2.00;;;21.90;93.40;;;;;;5090683;28;20054;-72
2021/08/07 18:30:31;;;;;;;3.15;2.20;;;21.90;93.40;;;;;;5090180;28;20029;-73
2021/08/07 18:32:57;;;;;;;4.63;2.22;;;21.80;93.50;;;;;;5090690;28;20028;-72
2021/08/07 18:35:23;;;;;;;2.78;2.10;;;21.80;93.70;;;;;;5090220;28;20052;-72
2021/08/07 18:37:48;;;;;;;2.33;2.13;;;21.80;93.50;;;;;;5089981;28;20081;-72
2021/08/07 18:40:14;;;;;;;2.75;2.10;;;21.70;93.70;;;;;;5089849;28;20048;-73
2021/08/07 18:42:40;;;;;;;4.82;2.20;;;21.70;93.60;;;;;;5088571;28;20027;-72
2021/08/07 18:45:06;;;;;;;2.67;2.47;;;21.70;93.50;;;;;;5090162;28;20502;-72
2021/08/07 18:47:32;;;;;;;4.88;2.30;;;21.60;93.60;;;;;;5090282;28;20356;-72
2021/08/07 18:49:58;;;;;;;2.55;2.20;;;21.60;93.70;;;;;;5090405;28;20032;-73
2021/08/07 18:52:23;;;;;;;3.22;2.38;;;21.50;93.80;;;;;;5089413;28;20040;-74
2021/08/07 18:54:50;;;;;;;3.70;2.17;;;21.60;93.50;;;;;;5089813;28;20115;-74
2021/08/07 18:57:15;;;;;;;2.65;2.45;;;21.50;93.50;;;;;;5090232;28;20126;-72
2021/08/07 18:59:41;;;;;;;6.57;3.00;;;21.50;93.60;;;;;;5089997;28;20103;-72
2021/08/07 19:02:07;;;;;;;3.65;2.70;;;21.30;93.90;;;;;;5089263;28;20033;-74
2021/08/07 19:04:33;;;;;;;5.35;3.22;;;21.30;94.10;;;;;;5089671;28;20021;-72
2021/08/07 19:06:59;;;;;;;5.25;3.15;;;21.20;94.20;;;;;;5087503;28;20864;-73
2021/08/07 19:09:25;;;;;;;7.63;5.82;;;21.20;94.20;;;;;;5078516;28;20024;-74
2021/08/07 19:11:52;;;;;;;16.20;12.27;;;21.20;94.10;;;;;;5070662;28;20075;-73
2021/08/07 19:14:18;;;;;;;21.08;16.50;;;21.20;94.20;;;;;;5069369;28;20552;-72
2021/08/07 19:16:44;;;;;;;3.75;2.60;;;21.10;94.30;;;;;;5084055;28;20028;-79
2021/08/07 19:19:09;;;;;;;32.25;10.35;;;21.20;94.00;;;;;;5089836;28;20455;-75
2021/08/07 19:21:35;;;;;;;8.82;4.75;;;21.10;94.00;;;;;;5089916;28;20028;-73
2021/08/07 19:24:01;;;;;;;10.80;8.50;;;21.10;94.30;;;;;;5089345;28;20454;-74
2021/08/07 19:26:28;;;;;;;7.75;5.95;;;21.00;94.50;;;;;;5081045;28;20475;-74
2021/08/07 19:28:55;;;;;;;2.90;2.63;;;21.00;94.70;;;;;;5075938;28;20373;-73
2021/08/07 19:31:21;;;;;;;47.85;34.60;;;21.00;94.50;;;;;;5075665;28;20463;-74
2021/08/07 19:33:47;;;;;;;13.88;10.40;;;20.90;94.70;;;;;;5076022;28;20032;-75
2021/08/07 19:36:13;;;;;;;7.50;5.13;;;20.90;94.70;;;;;;5075957;28;20020;-75
2021/08/07 19:38:40;;;;;;;4.28;2.85;;;20.90;94.80;;;;;;5076010;28;20024;-76
2021/08/07 19:41:06;;;;;;;2.88;2.20;;;20.90;95.00;;;;;;5075881;28;20036;-75
2021/08/07 19:43:35;;;;;;;4.03;2.35;;;20.80;94.90;;;;;;5075944;28;20017;-77
2021/08/07 19:46:00;;;;;;;3.50;2.40;;;20.80;95.00;;;;;;5075895;28;20028;-75
2021/08/07 19:48:26;;;;;;;2.20;2.00;;;20.80;94.80;;;;;;5075563;28;20023;-75
2021/08/07 19:50:54;;;;;;;3.28;2.30;;;20.70;95.10;;;;;;5075672;28;20078;-76
2021/08/07 19:53:20;;;;;;;3.72;2.10;;;20.70;95.10;;;;;;5075560;28;20107;-75
2021/08/07 19:55:45;;;;;;;2.70;2.15;;;20.70;95.40;;;;;;5074234;28;20103;-75
2021/08/07 19:58:11;;;;;;;4.20;2.28;;;20.60;95.30;;;;;;5074563;28;20111;-75
2021/08/07 20:00:37;;;;;;;3.05;2.05;;;20.70;95.40;;;;;;5074488;28;20028;-76
2021/08/07 20:03:03;;;;;;;3.03;2.47;;;20.60;95.60;;;;;;5074367;28;20497;-75
2021/08/07 20:05:29;;;;;;;4.05;2.13;;;20.60;95.60;;;;;;5074680;28;20033;-75
2021/08/07 20:07:54;;;;;;;2.80;2.30;;;20.50;95.60;;;;;;5074034;28;20029;-75
2021/08/07 20:10:20;;;;;;;3.90;2.63;;;20.50;95.80;;;;;;5073597;28;20021;-75
2021/08/07 20:12:46;;;;;;;3.08;2.40;;;20.50;96.00;;;;;;5074365;28;20055;-75
2021/08/07 20:15:13;;;;;;;2.58;2.28;;;20.40;96.20;;;;;;5074072;28;20044;-75
2021/08/07 20:17:40;;;;;;;2.40;2.20;;;20.30;96.50;;;;;;5074483;28;20116;-75
2021/08/07 20:20:07;;;;;;;3.13;2.25;;;20.20;96.60;;;;;;5074219;28;20028;-75
2021/08/07 20:22:33;;;;;;;4.43;2.45;;;20.20;96.80;;;;;;5074267;28;20397;-75
2021/08/07 20:24:58;;;;;;;2.38;2.10;;;20.20;96.90;;;;;;5074056;28;20031;-75
2021/08/07 20:27:24;;;;;;;4.10;2.70;;;20.10;97.00;;;;;;5074178;28;20029;-75
2021/08/07 20:29:50;;;;;;;2.40;2.20;;;20.10;97.00;;;;;;5073935;28;20478;-75
2021/08/07 20:32:16;;;;;;;3.10;2.10;;;20.00;97.20;;;;;;5073952;28;20029;-75
2021/08/07 20:34:42;;;;;;;3.03;2.40;;;20.00;97.30;;;;;;5074103;28;20029;-75
2021/08/07 20:37:08;;;;;;;2.53;2.30;;;20.00;97.40;;;;;;5073585;28;20031;-75
2021/08/07 20:39:34;;;;;;;2.33;2.15;;;20.00;97.60;;;;;;5073854;28;20017;-75
2021/08/07 20:41:59;;;;;;;5.55;2.70;;;19.90;97.60;;;;;;5074466;28;20086;-75
2021/08/07 20:44:25;;;;;;;3.83;2.60;;;19.90;97.80;;;;;;5074848;28;20391;-75
2021/08/07 20:46:51;;;;;;;3.03;2.72;;;19.90;97.60;;;;;;5074402;28;20584;-75
2021/08/07 20:49:16;;;;;;;5.10;2.65;;;19.90;97.60;;;;;;5074442;28;20110;-75
2021/08/07 20:51:42;;;;;;;2.60;2.25;;;19.90;97.30;;;;;;5074573;28;20032;-75
2021/08/07 20:54:08;;;;;;;3.65;2.80;;;20.00;97.00;;;;;;5074334;28;20029;-75
2021/08/07 20:56:39;;;;;;;2.80;2.60;;;20.00;96.90;;;;;;5074585;28;20033;-74
2021/08/07 20:59:09;;;;;;;3.20;2.78;;;20.00;96.60;;;;;;5074482;28;20440;-75
2021/08/07 21:01:36;;;;;;;2.70;2.47;;;20.00;96.60;;;;;;5074101;28;20020;-74
2021/08/07 21:04:03;;;;;;;2.67;2.47;;;20.00;96.70;;;;;;5074767;28;20454;-75
2021/08/07 21:06:29;;;;;;;2.78;2.55;;;20.00;96.70;;;;;;5074666;28;20367;-76
2021/08/07 21:08:55;;;;;;;3.10;2.80;;;20.00;96.80;;;;;;5074381;28;20028;-78
2021/08/07 21:11:21;;;;;;;2.92;2.70;;;20.10;96.70;;;;;;5074423;28;20035;-75
2021/08/07 21:13:46;;;;;;;3.25;2.90;;;20.10;96.40;;;;;;5073989;28;20076;-76
2021/08/07 21:16:14;;;;;;;4.55;2.92;;;20.10;96.20;;;;;;5074023;28;20020;-76
2021/08/07 21:18:39;;;;;;;3.92;3.00;;;20.10;95.90;;;;;;5074083;28;20029;-76
2021/08/07 21:21:07;;;;;;;3.28;2.60;;;20.10;96.10;;;;;;5073894;28;20328;-75
2021/08/07 21:23:34;;;;;;;2.80;2.60;;;20.00;96.30;;;;;;5074234;28;20016;-76
2021/08/07 21:25:59;;;;;;;3.00;2.75;;;20.00;96.40;;;;;;5074324;28;20359;-75
2021/08/07 21:28:25;;;;;;;3.22;2.50;;;19.90;96.40;;;;;;5074329;28;20033;-77
2021/08/07 21:30:59;;;;;;;3.42;2.67;;;20.00;96.10;;;;;;5073632;28;20032;-75
2021/08/07 21:33:25;;;;;;;2.67;2.47;;;20.00;96.10;;;;;;5074180;28;20036;-75
2021/08/07 21:35:50;;;;;;;3.08;2.75;;;20.00;96.10;;;;;;5074001;28;20028;-75
2021/08/07 21:38:16;;;;;;;2.92;2.40;;;20.10;95.90;;;;;;5073872;28;20016;-75
2021/08/07 21:40:42;;;;;;;2.60;2.40;;;20.10;95.90;;;;;;5074235;28;20016;-74
2021/08/07 21:43:09;;;;;;;2.65;2.42;;;20.00;96.00;;;;;;5073946;28;20104;-74
2021/08/07 21:45:39;;;;;;;2.80;2.60;;;20.00;95.90;;;;;;5073867;28;20027;-75
2021/08/07 21:48:07;;;;;;;2.90;2.55;;;20.00;96.00;;;;;;5073815;28;20099;-74
2021/08/07 21:50:33;;;;;;;2.70;2.50;;;20.10;95.80;;;;;;5073789;28;20028;-75
2021/08/07 21:52:58;;;;;;;2.60;2.40;;;20.20;95.80;;;;;;5073658;28;20024;-75
2021/08/07 21:55:24;;;;;;;3.65;2.45;;;20.10;95.90;;;;;;5073699;28;20081;-76
2021/08/07 21:57:50;;;;;;;2.65;2.45;;;20.10;96.10;;;;;;5073538;28;20020;-75
2021/08/07 22:00:35;;;;;;;2.85;2.58;;;20.00;96.20;;;;;;5073886;28;20021;-75
2021/08/07 22:03:04;;;;;;;3.63;2.70;;;20.00;96.30;;;;;;5073848;28;20073;-76
2021/08/07 22:05:30;;;;;;;2.58;2.38;;;20.00;96.60;;;;;;5074048;28;20374;-75
2021/08/07 22:07:56;;;;;;;3.03;2.72;;;20.00;96.40;;;;;;5073544;28;20035;-76
2021/08/07 22:10:22;;;;;;;3.55;2.65;;;20.00;96.40;;;;;;5073660;28;20020;-75
2021/08/07 22:12:48;;;;;;;3.72;2.60;;;20.10;96.30;;;;;;5073984;28;20466;-76
2021/08/07 22:15:14;;;;;;;2.75;2.53;;;20.00;96.30;;;;;;5073241;28;20665;-76
2021/08/07 22:17:40;;;;;;;3.38;2.67;;;20.00;96.50;;;;;;5073156;28;20103;-75
2021/08/07 22:20:09;;;;;;;3.15;2.88;;;20.00;96.20;;;;;;5073777;28;20086;-76
2021/08/07 22:22:36;;;;;;;3.55;2.40;;;20.00;96.20;;;;;;5073769;28;20378;-75
2021/08/07 22:25:03;;;;;;;3.00;2.63;;;20.00;96.30;;;;;;5073675;28;20025;-77
2021/08/07 22:27:28;;;;;;;2.25;2.03;;;20.00;96.30;;;;;;5073952;28;20029;-75
2021/08/07 22:29:54;;;;;;;2.60;2.40;;;19.90;96.60;;;;;;5074005;28;20473;-75
2021/08/07 22:32:20;;;;;;;2.88;2.42;;;19.80;96.90;;;;;;5072684;28;20032;-74
2021/08/07 22:34:45;;;;;;;5.53;2.65;;;19.90;97.20;;;;;;5073735;28;20029;-74
2021/08/07 22:37:11;;;;;;;3.15;2.47;;;19.90;97.20;;;;;;5073453;28;20020;-74
2021/08/07 22:39:37;;;;;;;2.83;2.60;;;19.90;97.10;;;;;;5073339;28;20028;-76
2021/08/07 22:42:03;;;;;;;4.03;2.50;;;19.90;97.40;;;;;;5073243;28;20032;-76
2021/08/07 22:44:28;;;;;;;2.80;2.60;;;20.00;96.90;;;;;;5073536;28;20016;-75
2021/08/07 22:46:54;;;;;;;5.15;2.60;;;20.00;96.60;;;;;;5073298;28;20095;-76
2021/08/07 22:49:19;;;;;;;2.67;2.42;;;20.00;96.40;;;;;;5073529;28;20032;-75
2021/08/07 22:51:45;;;;;;;2.78;2.40;;;20.00;96.40;;;;;;5071986;28;20032;-74
2021/08/07 22:54:11;;;;;;;2.92;2.60;;;19.90;96.50;;;;;;5073584;28;20036;-74
2021/08/07 22:56:36;;;;;;;2.75;2.55;;;19.90;96.60;;;;;;5073666;28;20379;-76
2021/08/07 22:59:02;;;;;;;3.13;2.83;;;19.90;96.70;;;;;;5073438;28;20020;-74
2021/08/07 23:01:27;;;;;;;3.03;2.83;;;19.90;96.90;;;;;;5074743;28;20374;-75
2021/08/07 23:03:54;;;;;;;2.97;2.67;;;19.90;97.20;;;;;;5076640;28;20467;-75
2021/08/07 23:06:21;;;;;;;2.45;2.25;;;19.90;97.10;;;;;;5076944;28;20351;-74
2021/08/07 23:08:46;;;;;;;2.80;2.60;;;19.90;96.90;;;;;;5077173;28;20107;-75
2021/08/07 23:11:12;;;;;;;8.05;2.85;;;19.90;96.90;;;;;;5077256;28;20401;-73
2021/08/07 23:13:37;;;;;;;2.92;2.60;;;19.90;96.90;;;;;;5077041;28;20104;-78
2021/08/07 23:16:03;;;;;;;2.80;2.60;;;19.90;97.00;;;;;;5076621;28;20443;-75
2021/08/07 23:18:29;;;;;;;3.38;2.70;;;19.90;97.10;;;;;;5076458;28;20048;-77
2021/08/07 23:20:55;;;;;;;2.80;2.60;;;19.80;97.30;;;;;;5076578;28;20028;-76
2021/08/07 23:23:23;;;;;;;3.20;2.60;;;19.70;97.50;;;;;;5076648;28;20070;-74
2021/08/07 23:25:48;;;;;;;3.25;2.80;;;19.70;97.60;;;;;;5076684;28;20024;-76
2021/08/07 23:28:14;;;;;;;3.78;2.55;;;19.70;97.60;;;;;;5076312;28;20032;-76
2021/08/07 23:30:40;;;;;;;2.97;2.78;;;19.60;97.80;;;;;;5076479;28;20024;-74
2021/08/07 23:33:05;;;;;;;3.40;2.90;;;19.70;97.60;;;;;;5076089;28;20021;-75
2021/08/07 23:35:31;;;;;;;3.90;2.60;;;19.70;97.60;;;;;;5076384;28;20133;-75
2021/08/07 23:37:57;;;;;;;3.13;2.92;;;19.70;97.40;;;;;;5075397;28;20032;-74
2021/08/07 23:40:22;;;;;;;4.38;2.40;;;19.80;97.40;;;;;;5076645;28;20021;-74
2021/08/07 23:42:48;;;;;;;2.75;2.50;;;19.70;97.70;;;;;;5076114;28;20377;-74
2021/08/07 23:45:14;;;;;;;3.20;2.75;;;19.60;98.00;;;;;;5076317;28;20032;-74
2021/08/07 23:47:40;;;;;;;3.15;2.85;;;19.60;98.30;;;;;;5076368;28;20032;-75
2021/08/07 23:50:06;;;;;;;3.15;2.85;;;19.60;98.30;;;;;;5076635;28;20044;-74
2021/08/07 23:52:32;;;;;;;3.33;2.95;;;19.70;98.20;;;;;;5076537;28;20063;-74
2021/08/07 23:54:57;;;;;;;3.00;2.80;;;19.60;98.40;;;;;;5076445;28;20105;-74
2021/08/07 23:57:23;;;;;;;3.88;2.90;;;19.60;98.50;;;;;;5075980;28;20099;-76
2021/08/07 23:59:49;;;;;;;3.17;2.88;;;19.50;98.50;;;;;;5076016;28;20071;-74
